createdAt,value
2023-02-09T00:02:08.158Z,11.48
2023-02-09T00:04:39.721Z,11.73
2023-02-09T00:07:11.139Z,13.65
2023-02-09T00:09:42.571Z,13.67
2023-02-09T00:12:13.978Z,14.25
2023-02-09T00:14:45.471Z,13.95
2023-02-09T00:17:16.909Z,12.18
2023-02-09T00:19:48.362Z,14.10
2023-02-09T00:22:19.835Z,13.48
2023-02-09T00:24:51.262Z,13.68
2023-02-09T00:27:22.722Z,12.50
2023-02-09T00:29:54.205Z,13.10
2023-02-09T00:32:25.747Z,14.32
2023-02-09T00:34:57.146Z,13.40
2023-02-09T00:37:28.617Z,11.73
2023-02-09T00:40:00.014Z,12.98
2023-02-09T00:42:31.446Z,11.40
2023-02-09T00:45:03.000Z,11.52
2023-02-09T00:47:34.466Z,13.53
2023-02-09T00:50:06.215Z,12.75
2023-02-09T00:52:37.682Z,14.55
2023-02-09T00:55:09.587Z,14.23
2023-02-09T00:57:41.000Z,12.55
2023-02-09T01:00:14.622Z,13.55
2023-02-09T01:02:46.028Z,13.65
2023-02-09T01:05:18.104Z,13.63
2023-02-09T01:07:49.567Z,12.48
2023-02-09T01:10:21.398Z,12.80
2023-02-09T01:12:52.860Z,12.07
2023-02-09T01:15:24.397Z,14.25
2023-02-09T01:17:55.874Z,12.27
2023-02-09T01:20:27.775Z,9.85
2023-02-09T01:22:59.220Z,12.60
2023-02-09T01:25:30.686Z,11.32
2023-02-09T01:28:02.171Z,12.55
2023-02-09T01:30:34.394Z,13.30
2023-02-09T01:33:05.904Z,12.75
2023-02-09T01:35:37.348Z,14.07
2023-02-09T01:38:08.767Z,13.80
2023-02-09T01:40:40.245Z,14.50
2023-02-09T01:43:12.221Z,14.32
2023-02-09T01:45:51.736Z,13.20
2023-02-09T01:48:28.582Z,13.25
2023-02-09T01:51:01.257Z,12.18
2023-02-09T01:53:33.122Z,11.90
2023-02-09T01:56:10.971Z,12.85
2023-02-09T01:58:43.094Z,13.05
2023-02-09T02:04:00.176Z,11.82
2023-02-09T02:06:32.413Z,15.18
2023-02-09T02:09:13.880Z,12.52
2023-02-09T02:11:47.754Z,13.38
2023-02-09T02:14:48.666Z,16.75
2023-02-09T02:17:51.026Z,13.10
2023-02-09T02:20:44.787Z,11.98
2023-02-09T02:23:43.332Z,14.15
2023-02-09T02:26:17.647Z,13.25
2023-02-09T02:29:10.776Z,12.15
2023-02-09T02:31:54.433Z,13.60
2023-02-09T02:34:37.863Z,13.75
2023-02-09T02:37:19.298Z,13.23
2023-02-09T02:40:22.288Z,13.57
2023-02-09T02:43:01.571Z,13.27
2023-02-09T02:45:58.078Z,13.65
2023-02-09T02:48:49.993Z,13.82
2023-02-09T02:51:28.085Z,12.15
2023-02-09T02:54:05.112Z,15.77
2023-02-09T02:56:40.356Z,14.98
2023-02-09T02:59:17.129Z,15.10
2023-02-09T03:02:00.304Z,14.80
2023-02-09T03:04:33.952Z,17.45
2023-02-09T03:07:06.507Z,13.85
2023-02-09T03:09:38.006Z,14.00
2023-02-09T03:12:39.097Z,13.45
2023-02-09T03:15:18.348Z,11.65
2023-02-09T03:18:05.582Z,13.73
2023-02-09T03:20:54.916Z,11.90
2023-02-09T03:23:52.824Z,13.57
2023-02-09T03:26:39.121Z,15.18
2023-02-09T03:29:12.524Z,13.55
2023-02-09T03:31:45.050Z,15.50
2023-02-09T03:34:17.366Z,13.43
2023-02-09T03:36:55.112Z,13.30
2023-02-09T03:39:26.560Z,12.88
2023-02-09T03:41:57.969Z,16.85
2023-02-09T03:44:29.422Z,12.82
2023-02-09T03:47:07.120Z,16.83
2023-02-09T03:49:40.948Z,16.38
2023-02-09T03:52:15.421Z,14.70
2023-02-09T03:54:46.882Z,13.25
2023-02-09T03:57:18.302Z,14.73
2023-02-09T03:59:49.750Z,15.18
2023-02-09T04:02:21.369Z,14.63
2023-02-09T04:04:52.885Z,15.35
2023-02-09T04:07:24.436Z,13.32
2023-02-09T04:09:55.859Z,15.15
2023-02-09T04:12:27.383Z,13.60
2023-02-09T04:14:58.876Z,15.40
2023-02-09T04:17:30.333Z,13.80
2023-02-09T04:20:01.835Z,15.45
2023-02-09T04:22:33.307Z,16.55
2023-02-09T04:25:04.947Z,14.30
2023-02-09T04:27:36.387Z,16.05
2023-02-09T04:30:08.688Z,16.02
2023-02-09T04:32:40.124Z,16.17
2023-02-09T04:35:11.596Z,15.27
2023-02-09T04:37:43.037Z,14.80
2023-02-09T04:40:14.503Z,16.52
2023-02-09T04:42:46.452Z,13.70
2023-02-09T04:45:17.905Z,14.75
2023-02-09T04:47:49.337Z,13.15
2023-02-09T04:50:20.746Z,13.52
2023-02-09T04:52:52.669Z,14.05
2023-02-09T04:55:24.132Z,15.43
2023-02-09T04:57:59.064Z,13.50
2023-02-09T05:00:30.490Z,14.70
2023-02-09T05:03:01.966Z,13.30
2023-02-09T05:05:33.697Z,13.98
2023-02-09T05:08:05.306Z,15.45
2023-02-09T05:10:36.811Z,15.30
2023-02-09T05:13:08.231Z,14.70
2023-02-09T05:15:39.623Z,12.55
2023-02-09T05:18:11.736Z,16.23
2023-02-09T05:20:45.256Z,12.80
2023-02-09T05:23:17.661Z,12.60
2023-02-09T05:25:49.180Z,14.82
2023-02-09T05:28:20.661Z,15.05
2023-02-09T05:30:53.165Z,13.63
2023-02-09T05:33:25.789Z,12.15
2023-02-09T05:35:57.313Z,11.85
2023-02-09T05:38:28.760Z,12.48
2023-02-09T05:41:04.753Z,12.73
2023-02-09T05:43:36.966Z,13.75
2023-02-09T05:46:08.691Z,12.10
2023-02-09T05:48:40.208Z,12.68
2023-02-09T05:51:11.647Z,11.55
2023-02-09T05:53:43.091Z,12.57
2023-02-09T05:56:14.524Z,13.15
2023-02-09T05:58:45.957Z,15.00
2023-02-09T06:01:17.422Z,10.90
2023-02-09T06:03:48.965Z,12.27
2023-02-09T06:06:20.583Z,10.52
2023-02-09T06:08:52.147Z,14.02
2023-02-09T06:11:23.622Z,12.77
2023-02-09T06:13:55.048Z,12.70
2023-02-09T06:16:26.644Z,10.88
2023-02-09T06:18:58.167Z,12.35
2023-02-09T06:21:29.767Z,13.07
2023-02-09T06:24:01.187Z,12.52
2023-02-09T06:26:32.699Z,13.25
2023-02-09T06:29:04.180Z,12.65
2023-02-09T06:31:36.274Z,12.07
2023-02-09T06:34:08.704Z,13.43
2023-02-09T06:36:40.145Z,13.00
2023-02-09T06:39:12.110Z,12.88
2023-02-09T06:41:43.540Z,12.20
2023-02-09T06:44:15.071Z,12.10
2023-02-09T06:46:46.724Z,14.23
2023-02-09T06:49:18.250Z,14.18
2023-02-09T06:51:49.852Z,16.50
2023-02-09T06:54:21.933Z,13.60
2023-02-09T06:56:53.372Z,14.02
2023-02-09T06:59:25.212Z,12.80
2023-02-09T07:01:56.714Z,14.03
2023-02-09T07:04:28.221Z,13.40
2023-02-09T07:06:59.683Z,14.20
2023-02-09T07:09:31.094Z,13.30
2023-02-09T07:12:02.560Z,13.02
2023-02-09T07:14:33.984Z,15.43
2023-02-09T07:17:05.466Z,14.75
2023-02-09T07:19:36.923Z,14.65
2023-02-09T07:22:08.405Z,11.85
2023-02-09T07:24:39.854Z,13.25
2023-02-09T07:27:11.281Z,12.13
2023-02-09T07:29:42.717Z,11.32
2023-02-09T07:32:14.310Z,14.07
2023-02-09T07:34:45.729Z,13.27
2023-02-09T07:37:17.148Z,13.90
2023-02-09T07:39:48.600Z,14.23
2023-02-09T07:42:21.538Z,13.27
2023-02-09T07:44:53.933Z,12.60
2023-02-09T07:47:25.360Z,10.75
2023-02-09T07:49:56.779Z,12.10
2023-02-09T07:52:28.217Z,16.35
2023-02-09T07:54:59.693Z,12.60
2023-02-09T07:57:31.130Z,11.35
2023-02-09T08:00:03.158Z,13.15
2023-02-09T08:02:36.529Z,12.45
2023-02-09T08:05:14.301Z,12.43
2023-02-09T08:07:45.917Z,14.68
2023-02-09T08:10:19.132Z,13.55
2023-02-09T08:12:50.835Z,13.05
2023-02-09T08:15:23.131Z,13.93
2023-02-09T08:17:58.976Z,15.40
2023-02-09T08:20:31.839Z,14.73
2023-02-09T08:23:08.966Z,14.32
2023-02-09T08:25:40.738Z,12.60
2023-02-09T08:28:12.263Z,15.43
2023-02-09T08:30:43.956Z,14.47
2023-02-09T08:33:15.800Z,14.82
2023-02-09T08:35:47.841Z,14.77
2023-02-09T08:38:19.988Z,13.15
2023-02-09T08:40:51.412Z,15.48
2023-02-09T08:43:22.948Z,13.55
2023-02-09T08:45:54.504Z,15.15
2023-02-09T08:48:26.011Z,15.05
2023-02-09T08:50:57.448Z,14.60
2023-02-09T08:53:28.909Z,14.85
2023-02-09T08:56:00.548Z,14.60
2023-02-09T08:58:32.723Z,14.43
2023-02-09T09:01:04.412Z,13.27
2023-02-09T09:03:36.284Z,18.30
2023-02-09T09:06:10.630Z,16.15
2023-02-09T09:08:42.022Z,13.68
2023-02-09T09:11:13.487Z,16.15
2023-02-09T09:13:44.982Z,13.90
2023-02-09T09:16:19.469Z,15.30
2023-02-09T09:18:50.963Z,14.60
2023-02-09T09:21:22.428Z,16.83
2023-02-09T09:23:53.861Z,16.40
2023-02-09T09:26:25.394Z,14.75
2023-02-09T09:28:56.793Z,15.07
2023-02-09T09:31:28.359Z,15.50
2023-02-09T09:33:59.881Z,14.33
2023-02-09T09:36:31.365Z,16.67
2023-02-09T09:39:02.852Z,17.25
2023-02-09T09:41:37.215Z,17.90
2023-02-09T09:44:28.239Z,18.90
2023-02-09T09:47:06.058Z,18.30
2023-02-09T09:49:38.120Z,16.42
2023-02-09T09:52:19.775Z,16.48
2023-02-09T09:54:51.916Z,16.60
2023-02-09T09:57:29.692Z,19.60
2023-02-09T10:00:02.910Z,18.55
2023-02-09T10:02:34.764Z,18.88
2023-02-09T10:05:21.985Z,19.33
2023-02-09T10:08:00.675Z,18.80
2023-02-09T10:10:50.123Z,17.88
2023-02-09T10:13:30.685Z,18.15
2023-02-09T10:16:04.032Z,18.98
2023-02-09T10:18:35.464Z,18.50
2023-02-09T10:21:10.725Z,19.27
2023-02-09T10:23:51.135Z,19.97
2023-02-09T10:26:25.293Z,22.45
2023-02-09T10:29:08.125Z,18.42
2023-02-09T10:31:47.000Z,21.77
2023-02-09T10:34:21.599Z,22.27
2023-02-09T10:37:10.783Z,22.92
2023-02-09T10:39:42.575Z,22.00
2023-02-09T10:42:29.838Z,18.92
2023-02-09T10:45:15.859Z,19.65
2023-02-09T10:48:01.757Z,17.25
2023-02-09T10:50:33.181Z,20.00
2023-02-09T10:53:33.794Z,19.83
2023-02-09T10:56:07.497Z,20.65
2023-02-09T10:58:39.453Z,20.42
2023-02-09T11:01:13.731Z,19.00
2023-02-09T11:04:06.836Z,21.45
2023-02-09T11:06:48.603Z,21.73
2023-02-09T11:09:25.104Z,20.83
2023-02-09T11:11:56.546Z,19.05
2023-02-09T11:14:28.562Z,20.77
2023-02-09T11:17:16.913Z,19.95
2023-02-09T11:19:57.422Z,21.60
2023-02-09T11:22:44.075Z,23.95
2023-02-09T11:25:32.997Z,25.63
2023-02-09T11:28:21.481Z,24.40
2023-02-09T11:31:13.791Z,24.10
2023-02-09T11:34:10.004Z,21.90
2023-02-09T11:36:44.384Z,23.35
2023-02-09T11:39:32.513Z,21.85
2023-02-09T11:42:09.800Z,23.63
2023-02-09T11:44:55.420Z,21.50
2023-02-09T11:47:42.224Z,24.67
2023-02-09T11:50:25.257Z,23.80
2023-02-09T11:53:00.920Z,24.08
2023-02-09T11:55:55.424Z,23.70
2023-02-09T11:58:26.873Z,23.10
2023-02-09T12:01:15.204Z,24.08
2023-02-09T12:04:13.090Z,27.80
2023-02-09T12:06:51.868Z,28.08
2023-02-09T12:09:41.195Z,23.75
2023-02-09T12:12:23.158Z,25.80
2023-02-09T12:15:00.795Z,25.27
2023-02-09T12:17:39.857Z,26.35
2023-02-09T12:20:27.571Z,26.60
2023-02-09T12:23:04.902Z,27.50
2023-02-09T12:25:45.107Z,25.10
2023-02-09T12:28:24.600Z,24.65
2023-02-09T12:31:00.039Z,23.85
2023-02-09T12:33:36.889Z,25.40
2023-02-09T12:36:08.314Z,24.80
2023-02-09T12:39:04.938Z,22.70
2023-02-09T12:41:42.510Z,23.90
2023-02-09T12:44:16.928Z,25.05
2023-02-09T12:46:53.703Z,28.30
2023-02-09T12:49:27.861Z,27.63
2023-02-09T12:51:59.300Z,27.13
2023-02-09T12:54:46.966Z,25.10
2023-02-09T12:57:18.391Z,25.38
2023-02-09T12:59:49.824Z,28.83
2023-02-09T13:02:42.444Z,27.52
2023-02-09T13:05:21.335Z,23.13
2023-02-09T13:08:11.149Z,27.65
2023-02-09T13:10:54.828Z,28.27
2023-02-09T13:13:32.386Z,29.00
2023-02-09T13:16:03.771Z,28.83
2023-02-09T13:18:49.380Z,30.25
2023-02-09T13:21:35.996Z,28.15
2023-02-09T13:24:12.990Z,32.53
2023-02-09T13:26:51.642Z,32.42
2023-02-09T13:29:31.046Z,32.33
2023-02-09T13:32:12.754Z,28.85
2023-02-09T13:35:05.520Z,30.27
2023-02-09T13:37:47.488Z,33.50
2023-02-09T13:40:23.760Z,30.25
2023-02-09T13:43:10.575Z,34.67
2023-02-09T13:45:53.741Z,35.83
2023-02-09T13:48:25.176Z,33.40
2023-02-09T13:50:59.885Z,33.57
2023-02-09T13:53:31.624Z,35.97
2023-02-09T13:56:08.860Z,32.95
2023-02-09T13:58:40.526Z,35.83
2023-02-09T14:01:17.744Z,35.38
2023-02-09T14:04:16.001Z,36.92
2023-02-09T14:06:52.563Z,36.55
2023-02-09T14:09:38.945Z,34.67
2023-02-09T14:12:23.296Z,38.33
2023-02-09T14:14:57.167Z,31.23
2023-02-09T14:17:33.742Z,33.88
2023-02-09T14:20:20.001Z,33.80
2023-02-09T14:23:00.371Z,37.97
2023-02-09T14:25:31.823Z,33.42
2023-02-09T14:28:03.389Z,39.55
2023-02-09T14:30:37.324Z,38.67
2023-02-09T14:33:23.084Z,34.65
2023-02-09T14:35:57.097Z,34.42
2023-02-09T14:38:40.718Z,40.00
2023-02-09T14:41:24.382Z,36.17
2023-02-09T14:44:03.843Z,31.33
2023-02-09T14:46:58.786Z,37.70
2023-02-09T14:49:30.716Z,29.83
2023-02-09T14:52:14.939Z,30.85
2023-02-09T14:54:49.308Z,37.88
2023-02-09T14:57:21.594Z,36.17
2023-02-09T14:59:53.041Z,37.80
2023-02-09T15:02:27.596Z,34.42
2023-02-09T15:04:59.095Z,33.03
2023-02-09T15:07:35.284Z,38.03
2023-02-09T15:10:31.880Z,37.42
2023-02-09T15:13:03.643Z,33.53
2023-02-09T15:15:35.067Z,35.78
2023-02-09T15:18:07.416Z,40.70
2023-02-09T15:20:38.836Z,35.30
2023-02-09T15:23:10.328Z,33.90
2023-02-09T15:25:42.788Z,38.25
2023-02-09T15:28:26.270Z,35.63
2023-02-09T15:30:59.202Z,27.80
2023-02-09T15:33:30.662Z,34.38
2023-02-09T15:36:02.108Z,31.88
2023-02-09T15:38:33.831Z,30.70
2023-02-09T15:41:05.290Z,30.53
2023-02-09T15:43:36.710Z,35.28
2023-02-09T15:46:09.405Z,30.83
2023-02-09T15:48:40.960Z,32.20
2023-02-09T15:51:12.784Z,30.40
2023-02-09T15:53:45.126Z,33.77
2023-02-09T15:56:16.603Z,27.90
2023-02-09T15:58:50.049Z,26.85
2023-02-09T16:01:21.558Z,28.45
2023-02-09T16:03:56.578Z,30.00
2023-02-09T16:06:28.821Z,26.38
2023-02-09T16:09:01.703Z,26.90
2023-02-09T16:11:39.256Z,25.63
2023-02-09T16:14:19.571Z,23.90
2023-02-09T16:16:51.713Z,23.33
2023-02-09T16:19:23.205Z,24.07
2023-02-09T16:21:58.138Z,22.23
2023-02-09T16:24:43.846Z,21.83
2023-02-09T16:27:24.066Z,22.83
2023-02-09T16:29:57.003Z,25.55
2023-02-09T16:32:28.496Z,20.75
2023-02-09T16:35:11.062Z,24.77
2023-02-09T16:37:49.868Z,22.00
2023-02-09T16:40:26.616Z,25.92
2023-02-09T16:43:00.039Z,25.27
2023-02-09T16:45:35.678Z,24.10
2023-02-09T16:48:15.132Z,23.37
2023-02-09T16:50:48.911Z,27.77
2023-02-09T16:53:28.327Z,25.23
2023-02-09T16:56:00.939Z,22.20
2023-02-09T16:58:32.593Z,20.23
2023-02-09T17:01:11.731Z,23.53
2023-02-09T17:03:47.209Z,22.58
2023-02-09T17:06:21.514Z,22.80
2023-02-09T17:08:52.904Z,22.50
2023-02-09T17:11:27.524Z,22.80
2023-02-09T17:13:58.935Z,25.67
2023-02-09T17:16:36.925Z,21.52
2023-02-09T17:19:14.238Z,21.15
2023-02-09T17:21:45.728Z,20.40
2023-02-09T17:24:17.511Z,21.75
2023-02-09T17:26:48.999Z,19.80
2023-02-09T17:29:20.556Z,19.42
2023-02-09T17:31:53.849Z,21.85
2023-02-09T17:34:26.124Z,22.77
2023-02-09T17:36:58.656Z,24.35
2023-02-09T17:39:30.955Z,21.52
2023-02-09T17:42:02.451Z,21.45
2023-02-09T17:44:46.114Z,21.13
2023-02-09T17:47:19.748Z,20.73
2023-02-09T17:49:51.189Z,19.35
2023-02-09T17:52:22.611Z,23.92
2023-02-09T17:54:55.460Z,26.67
2023-02-09T17:57:26.909Z,25.90
2023-02-09T17:59:58.429Z,19.53
2023-02-09T18:02:29.992Z,29.95
2023-02-09T18:05:01.485Z,20.02
2023-02-09T18:07:33.000Z,20.48
2023-02-09T18:10:04.831Z,19.00
2023-02-09T18:12:36.241Z,19.88
2023-02-09T18:15:19.513Z,21.55
2023-02-09T18:17:51.645Z,21.57
2023-02-09T18:20:28.716Z,24.98
2023-02-09T18:23:01.060Z,23.85
2023-02-09T18:25:37.757Z,30.65
2023-02-09T18:28:09.285Z,42.47
2023-02-09T18:30:40.764Z,37.73
2023-02-09T18:33:12.491Z,26.75
2023-02-09T18:35:44.559Z,24.58
2023-02-09T18:38:16.271Z,26.15
2023-02-09T18:40:47.692Z,22.27
2023-02-09T18:43:19.172Z,30.20
2023-02-09T18:45:50.622Z,23.35
2023-02-09T18:48:22.063Z,22.33
2023-02-09T18:50:53.477Z,22.33
2023-02-09T18:53:24.891Z,18.83
2023-02-09T18:55:56.387Z,22.38
2023-02-09T18:58:27.951Z,18.48
2023-02-09T19:00:59.567Z,20.02
2023-02-09T19:03:31.083Z,22.95
2023-02-09T19:06:02.576Z,20.13
2023-02-09T19:08:34.032Z,19.30
2023-02-09T19:11:06.782Z,25.77
2023-02-09T19:13:38.232Z,21.90
2023-02-09T19:16:13.471Z,18.90
2023-02-09T19:18:44.964Z,19.15
2023-02-09T19:21:16.373Z,18.98
2023-02-09T19:23:47.938Z,19.35
2023-02-09T19:26:20.282Z,21.53
2023-02-09T19:28:51.745Z,19.40
2023-02-09T19:31:23.435Z,17.88
2023-02-09T19:33:56.616Z,19.00
2023-02-09T19:36:28.094Z,19.17
2023-02-09T19:38:59.714Z,21.23
2023-02-09T19:41:31.322Z,15.13
2023-02-09T19:44:02.741Z,19.98
2023-02-09T19:46:34.194Z,17.90
2023-02-09T19:49:05.681Z,16.10
2023-02-09T19:51:37.741Z,17.75
2023-02-09T19:54:09.215Z,15.70
2023-02-09T19:56:41.390Z,16.63
2023-02-09T19:59:13.393Z,20.38
2023-02-09T20:01:44.860Z,16.05
2023-02-09T20:04:16.372Z,18.30
2023-02-09T20:06:47.851Z,16.05
2023-02-09T20:09:19.275Z,20.47
2023-02-09T20:11:50.692Z,17.70
2023-02-09T20:14:22.125Z,18.43
2023-02-09T20:16:54.188Z,19.85
2023-02-09T20:19:25.931Z,18.27
2023-02-09T20:21:57.391Z,18.75
2023-02-09T20:24:28.785Z,17.23
2023-02-09T20:27:00.419Z,18.95
2023-02-09T20:29:31.871Z,18.20
2023-02-09T20:32:03.785Z,19.17
2023-02-09T20:34:35.225Z,21.25
2023-02-09T20:37:06.731Z,20.95
2023-02-09T20:39:38.220Z,25.85
2023-02-09T20:42:09.628Z,23.40
2023-02-09T20:44:41.525Z,26.05
2023-02-09T20:47:12.967Z,28.55
2023-02-09T20:49:45.014Z,29.35
2023-02-09T20:52:16.534Z,28.75
2023-02-09T20:54:47.981Z,23.27
2023-02-09T20:57:19.441Z,26.50
2023-02-09T20:59:50.914Z,27.77
2023-02-09T21:02:22.346Z,23.35
2023-02-09T21:04:55.844Z,18.83
2023-02-09T21:07:27.841Z,21.40
2023-02-09T21:09:59.607Z,19.70
2023-02-09T21:12:31.061Z,16.83
2023-02-09T21:15:02.564Z,20.70
2023-02-09T21:17:34.162Z,20.42
2023-02-09T21:20:05.831Z,19.80
2023-02-09T21:22:37.291Z,18.30
2023-02-09T21:25:08.808Z,18.95
2023-02-09T21:27:40.279Z,19.23
2023-02-09T21:30:12.268Z,17.35
2023-02-09T21:32:43.697Z,16.80
2023-02-09T21:35:15.703Z,21.92
2023-02-09T21:37:47.196Z,18.90
2023-02-09T21:40:18.723Z,18.33
2023-02-09T21:42:50.425Z,19.13
2023-02-09T21:45:21.981Z,20.00
2023-02-09T21:47:53.625Z,18.45
2023-02-09T21:50:25.601Z,20.33
2023-02-09T21:52:57.037Z,18.42
2023-02-09T21:55:28.556Z,14.68
2023-02-09T21:58:00.817Z,17.95
2023-02-09T22:00:32.216Z,14.27
2023-02-09T22:03:03.700Z,17.00
2023-02-09T22:05:35.107Z,16.40
2023-02-09T22:08:06.524Z,15.98
2023-02-09T22:10:37.962Z,17.53
2023-02-09T22:13:09.437Z,17.52
2023-02-09T22:15:41.959Z,13.73
2023-02-09T22:18:13.826Z,17.38
2023-02-09T22:20:46.014Z,15.68
2023-02-09T22:23:18.982Z,16.95
2023-02-09T22:25:50.399Z,16.67
2023-02-09T22:28:21.840Z,12.57
2023-02-09T22:30:54.010Z,12.27
2023-02-09T22:33:25.510Z,16.30
2023-02-09T22:35:56.923Z,18.40
2023-02-09T22:38:28.351Z,14.23
2023-02-09T22:41:21.447Z,15.03
2023-02-09T22:44:04.391Z,14.20
2023-02-09T22:46:38.096Z,14.25
2023-02-09T22:49:15.004Z,12.52
2023-02-09T22:51:48.570Z,16.48
2023-02-09T22:54:20.223Z,12.90
2023-02-09T22:56:51.635Z,14.52
2023-02-09T22:59:23.072Z,11.60
2023-02-09T23:01:55.083Z,14.85
2023-02-09T23:04:26.529Z,12.27
2023-02-09T23:06:59.224Z,10.15
2023-02-09T23:09:31.072Z,12.70
2023-02-09T23:12:02.535Z,13.85
2023-02-09T23:14:34.028Z,17.17
2023-02-09T23:17:05.503Z,15.13
2023-02-09T23:19:36.940Z,15.77
2023-02-09T23:22:08.440Z,12.80
2023-02-09T23:24:39.863Z,11.05
2023-02-09T23:27:11.291Z,14.07
2023-02-09T23:29:42.748Z,14.55
2023-02-09T23:32:14.208Z,15.95
2023-02-09T23:34:45.625Z,13.80
2023-02-09T23:37:19.214Z,13.68
2023-02-09T23:40:06.760Z,11.48
2023-02-09T23:42:38.255Z,13.57
2023-02-09T23:45:09.707Z,11.57
2023-02-09T23:47:41.168Z,11.52
2023-02-09T23:50:12.644Z,14.03
2023-02-09T23:52:44.081Z,17.17
2023-02-09T23:55:15.659Z,12.88
2023-02-09T23:57:47.111Z,15.48
